PINE FLAT DAM (PNF)

Elevation: 970' · KINGS R basin · Operator: US Army Corps of Engineers

Provisional data, subject to change.
Query executed Wednesday at 8:20:18   clock

Select a sensor type for a plot of data.
Note: Reservoir Flows are daily averages.

Earlier

Date RES ELE    STORAGE    RES CHG    TOC STO    ABV TOC    OUTFLOW    INFLOW    FNF    PPT INC    PPTINC4    TEMP MN    TEMP MX    WINDLEN    EVP PAN   
 FEET   AF   AF   AF   AF   CFS   CFS   CFS   INCHES   INCHES   DEG F   DEG F   MILES   INCHES  
08/29/2016 759.40 199674 -1033 1000000 -800326 1247 748 160 0.00 0.00 -- -- 52 0.25
08/30/2016 758.97 198594 -1080 1000000 -801406 1188 665 134 0.00 0.00 -- -- 52 0.25
08/31/2016 758.45 197293 -1301 1000000 -802707 1180 546 134 0.00 0.00 -- -- 55 0.25
09/01/2016 757.81 195697 -1596 1000000 -804303 1172 389 103 e 0.00 0.00 -- -- 49 0.24
09/02/2016 757.31 194455 -1242 1000000 -805545 1187 582 102 e 0.00 0.00 -- -- 48 0.23
09/03/2016 756.72 192995 -1460 1000000 -807005 1171 455 131 e 0.00 0.00 -- -- 50 0.22
09/04/2016 756.14 191565 -1430 1000000 -808435 1138 436 121 0.00 0.00 -- -- 52 0.21
09/05/2016 755.49 189969 -1596 1000000 -810031 1130 344 326 e 0.00 0.00 -- -- 47 0.20
09/06/2016 755.03 188844 -1125 1000000 -811156 1142 595 130 e 0.00 0.00 -- -- 52 0.23
09/07/2016 754.56 187698 -1146 1000000 -812302 1151 594 326 e 0.00 0.00 -- -- 51 0.23
09/08/2016 754.12 186629 -1069 1000000 -813371 1150 631 135 e 0.00 0.00 -- -- 49 0.22
09/09/2016 753.67 185539 -1090 1000000 -814461 1150 620 174 e 0.00 0.00 -- -- 47 0.22
09/10/2016 753.29 184621 -918 1000000 -815379 1151 706 173 e 0.00 0.00 -- -- 41 0.20
09/11/2016 752.71 183224 -1397 1000000 -816776 1150 464 100 0.00 0.00 -- -- 44 0.21
09/12/2016 752.28 182192 -1032 1000000 -817808 1151 649 40 e 0.00 0.00 -- -- 54 0.21
09/13/2016 751.87 181212 -980 1000000 -818788 1179 700 40 e 0.00 0.00 -- -- 45 0.17
09/14/2016 751.36 179995 -1217 1000000 -820005 1201 604 40 e 0.00 0.00 -- -- 48 0.19
09/15/2016 750.80 178665 -1330 1000000 -821335 1200 546 40 e 0.00 0.00 -- -- 51 0.20
09/16/2016 750.41 177741 -924 1000000 -822259 1215 767 40 e 0.00 0.00 -- -- 51 0.20
09/17/2016 749.89 176514 -1227 -- -- 1243 642 40 e 0.00 0.00 -- -- 44 0.20
09/18/2016 749.44 175455 -1059 -- -- 1270 755 40 e 0.00 0.00 -- -- 52 0.22
09/19/2016 748.91 174213 -1242 1000000 -825787 1279 672 35 e 0.01 0.00 -- -- 50 0.22
09/20/2016 748.28 172742 -- 1000000 -827258 1297 572 35 e 0.00 0.00 -- -- 42 0.19
09/21/2016 747.82 171672 -1070 1000000 -828328 1305 778 35 e 0.00 0.00 -- -- 48 0.14
09/22/2016 747.16 170143 -1529 1000000 -829857 1333 577 35 0.00 0.00 -- -- 57 0.17
09/23/2016 746.43 168461 -1682 1000000 -831539 1364 530 -580 0.00 0.00 -- -- 46 0.16
09/24/2016 745.63 166627 -- 1000000 -833373 1379 469 35 0.00 0.00 -- -- 44 0.17
09/25/2016 745.06 165327 -1300 1000000 -834673 1397 758 126 0.00 0.00 -- -- 44 0.19
09/26/2016 744.54 164146 -1181 1000000 -835854 1439 860 160 0.00 0.00 -- -- 46 0.19
09/27/2016 744.04 163014 -1132 1000000 -836986 1470 915 166 0.00 0.00 -- -- 46 0.19
09/28/2016 -- -- -- -- -- -- -- -- -- 0.00 -- -- -- --

Later | Latest

Warning! This data is preliminary and subject to revision.

Show PNF Map | Plot PNF Data | 1 Month PNF Data | Real-Time PNF Data | PNF Info